createdAt,value
2022-10-13T00:01:31.798Z,14.47
2022-10-13T00:03:58.897Z,14.23
2022-10-13T00:06:27.689Z,13.90
2022-10-13T00:08:55.394Z,12.33
2022-10-13T00:11:23.290Z,13.70
2022-10-13T00:13:50.907Z,12.63
2022-10-13T00:16:19.301Z,14.03
2022-10-13T00:18:46.861Z,12.70
2022-10-13T00:21:15.038Z,14.10
2022-10-13T00:23:43.666Z,14.23
2022-10-13T00:26:11.637Z,13.73
2022-10-13T00:28:39.370Z,14.00
2022-10-13T00:31:15.251Z,14.00
2022-10-13T00:33:42.363Z,13.93
2022-10-13T00:36:09.482Z,13.97
2022-10-13T00:38:36.628Z,14.33
2022-10-13T00:41:05.190Z,13.90
2022-10-13T00:43:47.166Z,14.50
2022-10-13T00:46:14.622Z,14.70
2022-10-13T00:48:42.490Z,14.70
2022-10-13T00:51:10.545Z,14.47
2022-10-13T00:53:38.764Z,15.43
2022-10-13T00:56:09.585Z,14.23
2022-10-13T00:58:37.069Z,13.70
2022-10-13T01:01:05.012Z,13.20
2022-10-13T01:03:32.157Z,14.83
2022-10-13T01:06:00.889Z,14.77
2022-10-13T01:08:28.566Z,15.60
2022-10-13T01:11:04.673Z,13.33
2022-10-13T01:13:36.030Z,13.47
2022-10-13T01:16:10.149Z,14.10
2022-10-13T01:18:41.305Z,13.80
2022-10-13T01:21:14.346Z,14.60
2022-10-13T01:23:59.494Z,13.23
2022-10-13T01:26:37.190Z,15.27
2022-10-13T01:29:19.187Z,13.53
2022-10-13T01:31:49.817Z,15.50
2022-10-13T01:34:19.942Z,14.40
2022-10-13T01:36:49.492Z,13.47
2022-10-13T01:39:21.601Z,13.33
2022-10-13T01:41:51.226Z,15.23
2022-10-13T01:44:21.771Z,13.63
2022-10-13T01:46:54.928Z,14.53
2022-10-13T01:49:24.283Z,12.83
2022-10-13T01:51:51.829Z,13.93
2022-10-13T01:54:18.921Z,17.03
2022-10-13T01:56:52.229Z,14.30
2022-10-13T01:59:19.582Z,14.60
2022-10-13T02:01:55.567Z,12.70
2022-10-13T02:04:29.796Z,13.83
2022-10-13T02:06:59.300Z,13.70
2022-10-13T02:09:29.289Z,13.37
2022-10-13T02:11:59.192Z,13.17
2022-10-13T02:14:30.927Z,13.23
2022-10-13T02:17:00.668Z,14.03
2022-10-13T02:19:29.429Z,13.67
2022-10-13T02:21:57.173Z,14.80
2022-10-13T02:24:24.355Z,15.67
2022-10-13T02:26:51.888Z,15.50
2022-10-13T02:29:20.781Z,13.90
2022-10-13T02:31:48.383Z,14.40
2022-10-13T02:34:15.993Z,15.20
2022-10-13T02:36:47.960Z,13.40
2022-10-13T02:39:15.195Z,13.40
2022-10-13T02:41:42.304Z,12.90
2022-10-13T02:44:09.389Z,15.27
2022-10-13T02:46:40.981Z,13.10
2022-10-13T02:49:08.048Z,13.20
2022-10-13T02:51:39.673Z,12.63
2022-10-13T02:54:08.918Z,14.93
2022-10-13T02:56:36.060Z,13.73
2022-10-13T02:59:03.148Z,13.40
2022-10-13T03:01:30.282Z,12.77
2022-10-13T03:03:57.407Z,13.70
2022-10-13T03:06:24.469Z,14.07
2022-10-13T03:08:51.622Z,12.47
2022-10-13T03:11:20.074Z,13.40
2022-10-13T03:13:47.199Z,14.37
2022-10-13T03:16:14.288Z,13.63
2022-10-13T03:18:41.440Z,12.77
2022-10-13T03:21:08.518Z,13.73
2022-10-13T03:23:37.549Z,13.00
2022-10-13T03:26:04.658Z,12.93
2022-10-13T03:28:33.133Z,13.57
2022-10-13T03:31:01.098Z,13.80
2022-10-13T03:33:28.190Z,14.90
2022-10-13T03:35:58.621Z,13.60
2022-10-13T03:38:25.743Z,14.00
2022-10-13T03:40:52.847Z,13.80
2022-10-13T03:43:19.950Z,13.63
2022-10-13T03:45:56.042Z,13.53
2022-10-13T03:48:23.110Z,13.53
2022-10-13T03:50:50.225Z,12.60
2022-10-13T03:53:17.497Z,13.63
2022-10-13T03:55:49.471Z,13.80
2022-10-13T03:58:16.573Z,12.20
2022-10-13T04:00:46.232Z,14.80
2022-10-13T04:03:14.704Z,13.50
2022-10-13T04:05:41.876Z,14.37
2022-10-13T04:08:09.033Z,14.53
2022-10-13T04:10:36.120Z,13.97
2022-10-13T04:13:03.228Z,13.70
2022-10-13T04:15:30.343Z,13.47
2022-10-13T04:17:57.494Z,12.60
2022-10-13T04:20:25.909Z,12.70
2022-10-13T04:22:53.666Z,13.90
2022-10-13T04:25:20.754Z,14.13
2022-10-13T04:27:47.864Z,13.37
2022-10-13T04:30:15.156Z,12.57
2022-10-13T04:32:42.248Z,14.57
2022-10-13T04:35:11.806Z,12.97
2022-10-13T04:37:44.817Z,14.87
2022-10-13T04:40:12.721Z,11.77
2022-10-13T04:42:39.842Z,13.10
2022-10-13T04:45:07.650Z,12.83
2022-10-13T04:47:37.142Z,13.60
2022-10-13T04:50:04.669Z,12.73
2022-10-13T04:52:31.807Z,10.90
2022-10-13T04:55:00.261Z,13.77
2022-10-13T04:57:27.376Z,11.27
2022-10-13T04:59:54.501Z,12.37
2022-10-13T05:02:21.989Z,11.27
2022-10-13T05:04:49.225Z,13.17
2022-10-13T05:07:18.515Z,12.17
2022-10-13T05:09:45.990Z,11.90
2022-10-13T05:12:14.509Z,13.60
2022-10-13T05:14:41.614Z,14.60
2022-10-13T05:17:08.730Z,13.40
2022-10-13T05:19:35.800Z,12.40
2022-10-13T05:22:02.910Z,12.00
2022-10-13T05:24:30.117Z,12.07
2022-10-13T05:26:57.252Z,12.40
2022-10-13T05:29:25.765Z,14.73
2022-10-13T05:31:52.828Z,12.40
2022-10-13T05:34:19.975Z,10.83
2022-10-13T05:36:47.074Z,13.80
2022-10-13T05:39:14.179Z,12.10
2022-10-13T05:41:41.258Z,12.03
2022-10-13T05:44:13.611Z,13.73
2022-10-13T05:46:52.141Z,11.73
2022-10-13T05:49:19.276Z,12.40
2022-10-13T05:51:47.759Z,11.40
2022-10-13T05:54:16.467Z,13.27
2022-10-13T05:56:45.554Z,13.17
2022-10-13T05:59:14.153Z,11.87
2022-10-13T06:01:44.501Z,12.40
2022-10-13T06:04:15.770Z,12.50
2022-10-13T06:06:45.675Z,11.60
2022-10-13T06:09:12.801Z,11.30
2022-10-13T06:11:40.498Z,13.33
2022-10-13T06:14:07.621Z,12.73
2022-10-13T06:16:35.570Z,12.53
2022-10-13T06:19:03.007Z,11.33
2022-10-13T06:21:31.495Z,10.50
2022-10-13T06:23:58.631Z,10.20
2022-10-13T06:26:25.693Z,12.60
2022-10-13T06:28:58.424Z,12.13
2022-10-13T06:31:26.565Z,12.07
2022-10-13T06:33:53.745Z,11.70
2022-10-13T06:36:20.938Z,12.13
2022-10-13T06:38:49.418Z,13.00
2022-10-13T06:41:19.088Z,13.70
2022-10-13T06:43:46.187Z,12.63
2022-10-13T06:46:13.560Z,12.60
2022-10-13T06:48:40.687Z,12.30
2022-10-13T06:51:08.360Z,11.97
2022-10-13T06:53:35.758Z,11.60
2022-10-13T06:56:06.053Z,10.80
2022-10-13T06:58:33.238Z,11.47
2022-10-13T07:01:00.428Z,13.07
2022-10-13T07:03:27.604Z,10.73
2022-10-13T07:05:54.746Z,11.57
2022-10-13T07:08:21.942Z,10.20
2022-10-13T07:10:49.082Z,12.20
2022-10-13T07:13:17.502Z,11.43
2022-10-13T07:15:44.691Z,12.17
2022-10-13T07:18:11.852Z,10.67
2022-10-13T07:20:38.975Z,10.90
2022-10-13T07:23:06.119Z,11.50
2022-10-13T07:25:33.226Z,11.40
2022-10-13T07:28:00.543Z,11.20
2022-10-13T07:30:29.001Z,11.20
2022-10-13T07:32:56.184Z,9.90
2022-10-13T07:35:26.952Z,11.47
2022-10-13T07:37:57.514Z,11.83
2022-10-13T07:40:24.874Z,11.60
2022-10-13T07:42:51.965Z,11.57
2022-10-13T07:45:19.092Z,10.47
2022-10-13T07:47:47.508Z,11.27
2022-10-13T07:50:14.611Z,10.57
2022-10-13T07:52:41.736Z,11.10
2022-10-13T07:55:12.077Z,11.93
2022-10-13T07:57:39.269Z,10.73
2022-10-13T08:00:06.899Z,11.43
2022-10-13T08:02:39.697Z,11.13
2022-10-13T08:05:09.108Z,10.20
2022-10-13T08:07:36.471Z,10.97
2022-10-13T08:10:04.156Z,10.63
2022-10-13T08:12:31.231Z,11.13
2022-10-13T08:15:00.498Z,10.20
2022-10-13T08:17:30.589Z,10.40
2022-10-13T08:19:57.691Z,11.70
2022-10-13T08:22:28.501Z,11.53
2022-10-13T08:24:55.871Z,10.20
2022-10-13T08:27:26.639Z,11.57
2022-10-13T08:30:04.597Z,11.43
2022-10-13T08:32:32.465Z,10.23
2022-10-13T08:34:59.561Z,12.57
2022-10-13T08:37:29.358Z,10.60
2022-10-13T08:39:56.558Z,11.93
2022-10-13T08:42:23.937Z,12.00
2022-10-13T08:47:42.293Z,11.40
2022-10-13T08:50:12.480Z,10.33
2022-10-13T08:52:46.322Z,10.97
2022-10-13T08:55:17.591Z,10.43
2022-10-13T08:57:44.729Z,10.37
2022-10-13T09:00:13.456Z,10.87
2022-10-13T09:02:43.706Z,10.67
2022-10-13T09:05:15.421Z,11.97
2022-10-13T09:07:44.919Z,12.10
2022-10-13T09:10:13.450Z,11.23
2022-10-13T09:12:40.555Z,11.20
2022-10-13T09:15:08.737Z,11.30
2022-10-13T09:17:37.483Z,10.97
2022-10-13T09:20:06.398Z,11.30
2022-10-13T09:22:34.204Z,9.97
2022-10-13T09:25:19.248Z,11.73
2022-10-13T09:27:48.675Z,11.10
2022-10-13T09:30:24.352Z,10.30
2022-10-13T09:32:56.558Z,11.23
2022-10-13T09:35:24.079Z,11.00
2022-10-13T09:38:02.130Z,9.47
2022-10-13T09:40:29.248Z,10.40
2022-10-13T09:42:57.892Z,10.30
2022-10-13T09:45:25.544Z,10.40
2022-10-13T09:47:54.460Z,9.60
2022-10-13T09:50:23.966Z,11.07
2022-10-13T09:52:52.110Z,9.63
2022-10-13T09:55:36.858Z,10.17
2022-10-13T09:58:07.559Z,10.60
2022-10-13T10:00:34.681Z,11.03
2022-10-13T10:03:05.228Z,11.20
2022-10-13T10:05:38.556Z,10.30
2022-10-13T10:08:11.867Z,11.77
2022-10-13T10:10:41.358Z,11.60
2022-10-13T10:13:12.055Z,11.60
2022-10-13T10:15:43.774Z,9.83
2022-10-13T10:18:15.255Z,9.90
2022-10-13T10:20:51.119Z,10.17
2022-10-13T10:23:19.527Z,11.77
2022-10-13T10:25:48.563Z,9.97
2022-10-13T10:28:32.149Z,10.40
2022-10-13T10:31:04.595Z,10.37
2022-10-13T10:33:36.755Z,11.67
2022-10-13T10:36:07.602Z,12.07
2022-10-13T10:38:41.085Z,11.80
2022-10-13T10:41:13.495Z,9.53
2022-10-13T10:43:48.251Z,9.70
2022-10-13T10:46:18.699Z,10.50
2022-10-13T10:48:46.323Z,10.23
2022-10-13T10:51:15.322Z,10.43
2022-10-13T10:54:03.252Z,10.70
2022-10-13T10:56:33.009Z,9.93
2022-10-13T10:59:13.268Z,11.60
2022-10-13T11:01:43.291Z,10.63
2022-10-13T11:04:31.269Z,10.73
2022-10-13T11:06:59.621Z,11.33
2022-10-13T11:09:45.478Z,10.80
2022-10-13T11:12:22.805Z,10.90
2022-10-13T11:15:02.929Z,9.60
2022-10-13T11:17:30.741Z,9.90
2022-10-13T11:19:58.696Z,9.33
2022-10-13T11:22:26.299Z,9.17
2022-10-13T11:25:17.335Z,10.70
2022-10-13T11:27:44.838Z,10.90
2022-10-13T11:30:30.518Z,10.57
2022-10-13T11:32:59.011Z,9.63
2022-10-13T11:35:27.739Z,10.57
2022-10-13T11:38:07.980Z,10.90
2022-10-13T11:40:40.911Z,9.20
2022-10-13T11:43:21.998Z,10.20
2022-10-13T11:45:59.739Z,10.07
2022-10-13T11:48:39.173Z,9.30
2022-10-13T11:51:12.615Z,9.93
2022-10-13T11:53:48.331Z,5.73
2022-10-13T11:56:20.312Z,4.70
2022-10-13T11:58:47.380Z,4.93
2022-10-13T12:01:15.588Z,4.00
2022-10-13T12:03:45.129Z,4.20
2022-10-13T12:06:23.831Z,4.40
2022-10-13T12:08:52.143Z,4.70
2022-10-13T12:11:25.573Z,5.00
2022-10-13T12:13:53.372Z,5.40
2022-10-13T12:16:21.625Z,4.30
2022-10-13T12:18:52.804Z,4.80
2022-10-13T12:21:20.681Z,4.43
2022-10-13T12:23:48.393Z,4.03
2022-10-13T12:26:16.336Z,4.70
2022-10-13T12:28:49.297Z,4.43
2022-10-13T12:31:18.626Z,4.40
2022-10-13T12:33:52.157Z,4.33
2022-10-13T12:36:21.872Z,5.17
2022-10-13T12:38:50.115Z,5.17
2022-10-13T12:41:18.104Z,5.90
2022-10-13T12:43:45.754Z,5.10
2022-10-13T12:46:12.855Z,5.50
2022-10-13T12:48:39.963Z,5.07
2022-10-13T12:51:16.824Z,5.90
2022-10-13T12:53:45.798Z,5.80
2022-10-13T12:56:23.159Z,5.63
2022-10-13T12:58:50.278Z,6.10
2022-10-13T13:01:23.957Z,5.47
2022-10-13T13:03:54.628Z,6.40
2022-10-13T13:06:23.174Z,6.00
2022-10-13T13:09:05.150Z,5.23
2022-10-13T13:11:37.506Z,5.83
2022-10-13T13:14:23.432Z,5.63
2022-10-13T13:17:03.157Z,5.43
2022-10-13T13:19:31.609Z,5.60
2022-10-13T13:21:58.717Z,5.40
2022-10-13T13:24:39.062Z,5.17
2022-10-13T13:27:18.842Z,5.63
2022-10-13T13:29:46.253Z,5.60
2022-10-13T13:32:13.702Z,5.23
2022-10-13T13:34:40.824Z,4.87
2022-10-13T13:37:12.519Z,5.97
2022-10-13T13:39:39.578Z,4.90
2022-10-13T13:42:06.700Z,5.40
2022-10-13T13:44:38.012Z,5.40
2022-10-13T13:47:05.263Z,5.37
2022-10-13T13:49:32.787Z,6.43
2022-10-13T13:51:59.871Z,6.27
2022-10-13T13:54:26.967Z,6.77
2022-10-13T13:56:58.586Z,5.80
2022-10-13T13:59:26.038Z,7.37
2022-10-13T14:01:54.790Z,7.60
2022-10-13T14:04:22.272Z,5.93
2022-10-13T14:06:49.386Z,8.00
2022-10-13T14:09:16.465Z,8.63
2022-10-13T14:11:43.553Z,8.27
2022-10-13T14:14:10.681Z,10.07
2022-10-13T14:16:37.761Z,8.30
2022-10-13T14:19:07.515Z,8.10
2022-10-13T14:21:34.781Z,8.80
2022-10-13T14:24:02.281Z,7.53
2022-10-13T14:26:29.349Z,7.77
2022-10-13T14:28:57.066Z,8.87
2022-10-13T14:31:24.424Z,8.80
2022-10-13T14:33:54.236Z,9.03
2022-10-13T14:36:25.326Z,8.70
2022-10-13T14:38:52.514Z,10.23
2022-10-13T14:41:19.573Z,8.43
2022-10-13T14:43:52.229Z,8.40
2022-10-13T14:46:19.300Z,8.33
2022-10-13T14:48:46.421Z,8.57
2022-10-13T14:51:13.943Z,9.73
2022-10-13T14:53:43.419Z,8.23
2022-10-13T14:56:18.356Z,9.27
2022-10-13T14:58:50.597Z,9.80
2022-10-13T15:01:17.838Z,10.87
2022-10-13T15:03:45.448Z,10.53
2022-10-13T15:06:14.252Z,10.90
2022-10-13T15:08:42.946Z,9.90
2022-10-13T15:11:10.378Z,10.97
2022-10-13T15:13:37.918Z,9.80
2022-10-13T15:16:05.512Z,11.60
2022-10-13T15:18:32.972Z,11.80
2022-10-13T15:21:00.199Z,11.70
2022-10-13T15:23:27.509Z,11.10
2022-10-13T15:25:56.651Z,11.20
2022-10-13T15:28:24.289Z,11.80
2022-10-13T15:30:51.429Z,11.90
2022-10-13T15:33:21.816Z,14.63
2022-10-13T15:35:49.588Z,12.00
2022-10-13T15:38:16.849Z,12.80
2022-10-13T15:40:43.954Z,14.10
2022-10-13T15:43:12.488Z,14.03
2022-10-13T15:45:39.706Z,13.50
2022-10-13T15:48:07.527Z,14.07
2022-10-13T15:50:34.700Z,15.20
2022-10-13T15:53:01.889Z,13.07
2022-10-13T15:55:29.012Z,14.10
2022-10-13T15:57:56.113Z,13.80
2022-10-13T16:00:24.742Z,14.33
2022-10-13T16:02:52.018Z,13.67
2022-10-13T16:05:19.766Z,13.90
2022-10-13T16:07:46.874Z,14.53
2022-10-13T16:10:14.982Z,13.93
2022-10-13T16:12:46.801Z,14.40
2022-10-13T16:15:16.576Z,15.13
2022-10-13T16:17:45.040Z,15.27
2022-10-13T16:20:12.775Z,15.27
2022-10-13T16:22:39.869Z,14.33
2022-10-13T16:25:08.528Z,14.77
2022-10-13T16:27:36.412Z,15.07
2022-10-13T16:30:06.041Z,15.63
2022-10-13T16:32:37.824Z,15.27
2022-10-13T16:35:07.032Z,15.10
2022-10-13T16:37:34.231Z,15.27
2022-10-13T16:40:01.313Z,14.33
2022-10-13T16:42:28.386Z,14.90
2022-10-13T16:44:55.484Z,15.30
2022-10-13T16:47:27.315Z,16.73
2022-10-13T16:49:54.473Z,15.53
2022-10-13T16:52:22.971Z,17.70
2022-10-13T16:54:50.696Z,15.83
2022-10-13T16:57:17.988Z,16.80
2022-10-13T16:59:48.320Z,15.77
2022-10-13T17:02:15.774Z,17.90
2022-10-13T17:04:43.097Z,16.03
2022-10-13T17:07:10.172Z,18.57
2022-10-13T17:09:38.621Z,18.40
2022-10-13T17:12:06.222Z,17.90
2022-10-13T17:14:33.342Z,18.97
2022-10-13T17:17:00.474Z,17.17
2022-10-13T17:19:27.553Z,19.90
2022-10-13T17:21:54.652Z,19.83
2022-10-13T17:24:21.759Z,19.20
2022-10-13T17:26:50.747Z,16.80
2022-10-13T17:29:17.884Z,17.60
2022-10-13T17:31:45.639Z,18.57
2022-10-13T17:34:12.759Z,17.43
2022-10-13T17:36:39.871Z,16.90
2022-10-13T17:39:10.523Z,15.90
2022-10-13T17:41:40.122Z,15.30
2022-10-13T17:44:08.623Z,14.90
2022-10-13T17:46:38.023Z,13.57
2022-10-13T17:49:05.690Z,12.20
2022-10-13T17:51:32.776Z,12.63
2022-10-13T17:54:00.451Z,12.93
2022-10-13T17:56:28.371Z,12.83
2022-10-13T17:58:55.523Z,12.30
2022-10-13T18:01:24.938Z,13.27
2022-10-13T18:03:53.492Z,13.37
2022-10-13T18:06:26.246Z,13.53
2022-10-13T18:08:53.338Z,13.50
2022-10-13T18:11:21.360Z,15.40
2022-10-13T18:13:48.528Z,15.47
2022-10-13T18:16:16.796Z,14.33
2022-10-13T18:18:45.534Z,15.30
2022-10-13T18:21:13.592Z,15.80
2022-10-13T18:23:41.253Z,14.83
2022-10-13T18:26:10.922Z,14.23
2022-10-13T18:28:38.429Z,15.27
2022-10-13T18:31:06.130Z,14.17
2022-10-13T18:33:33.381Z,13.97
2022-10-13T18:36:02.203Z,14.20
2022-10-13T18:38:29.301Z,14.00
2022-10-13T18:40:59.750Z,14.20
2022-10-13T18:43:26.856Z,13.60
2022-10-13T18:45:53.941Z,14.43
2022-10-13T18:48:21.027Z,14.27
2022-10-13T18:50:48.117Z,15.77
2022-10-13T18:53:16.568Z,14.77
2022-10-13T18:55:43.760Z,15.67
2022-10-13T18:58:10.915Z,15.60
2022-10-13T19:00:38.077Z,14.70
2022-10-13T19:03:05.188Z,15.20
2022-10-13T19:05:32.386Z,15.17
2022-10-13T19:07:59.536Z,14.53
2022-10-13T19:10:29.297Z,12.40
2022-10-13T19:12:56.370Z,12.30
2022-10-13T19:15:23.954Z,12.67
2022-10-13T19:17:51.929Z,12.20
2022-10-13T19:20:19.026Z,12.63
2022-10-13T19:22:46.126Z,10.63
2022-10-13T19:25:15.521Z,11.83
2022-10-13T19:27:43.954Z,10.20
2022-10-13T19:30:11.623Z,9.83
2022-10-13T19:32:38.950Z,9.77
2022-10-13T19:35:06.201Z,10.07
2022-10-13T19:37:33.448Z,9.83
2022-10-13T19:40:00.555Z,9.77
2022-10-13T19:42:29.206Z,10.27
2022-10-13T19:44:57.649Z,9.30
2022-10-13T19:47:24.721Z,8.73
2022-10-13T19:49:51.813Z,8.47
2022-10-13T19:52:18.925Z,6.63
2022-10-13T19:54:46.015Z,7.30
2022-10-13T19:57:13.122Z,6.47
2022-10-13T19:59:44.037Z,5.93
2022-10-13T20:02:15.212Z,6.53
2022-10-13T20:04:42.336Z,5.53
2022-10-13T20:07:09.446Z,6.87
2022-10-13T20:09:36.546Z,6.20
2022-10-13T20:12:03.785Z,4.93
2022-10-13T20:14:32.039Z,6.30
2022-10-13T20:16:59.126Z,5.43
2022-10-13T20:19:27.561Z,5.50
2022-10-13T20:21:54.661Z,6.30
2022-10-13T20:24:21.895Z,5.50
2022-10-13T20:26:49.060Z,5.13
2022-10-13T20:29:19.590Z,5.97
2022-10-13T20:31:46.812Z,6.90
2022-10-13T20:34:13.930Z,6.73
2022-10-13T20:36:42.370Z,6.07
2022-10-13T20:39:09.490Z,6.40
2022-10-13T20:41:36.590Z,6.43
2022-10-13T20:44:04.036Z,13.23
2022-10-13T20:46:33.633Z,7.03
2022-10-13T20:49:16.052Z,6.10
2022-10-13T20:51:45.029Z,6.40
2022-10-13T20:54:13.216Z,6.30
2022-10-13T20:56:40.547Z,8.57
2022-10-13T20:59:08.494Z,6.47
2022-10-13T21:01:35.617Z,8.03
2022-10-13T21:04:02.929Z,6.67
2022-10-13T21:06:30.062Z,7.30
2022-10-13T21:09:02.119Z,7.30
2022-10-13T21:11:29.194Z,7.40
2022-10-13T21:13:56.312Z,7.70
2022-10-13T21:16:24.797Z,8.00
2022-10-13T21:18:52.235Z,8.23
2022-10-13T21:21:20.514Z,7.50
2022-10-13T21:23:51.473Z,7.00
2022-10-13T21:26:21.968Z,6.87
2022-10-13T21:28:49.784Z,6.57
2022-10-13T21:31:17.340Z,7.33
2022-10-13T21:33:44.670Z,7.77
2022-10-13T21:36:12.939Z,7.30
2022-10-13T21:38:40.048Z,6.63
2022-10-13T21:41:07.917Z,7.80
2022-10-13T21:43:36.629Z,8.20
2022-10-13T21:46:09.929Z,8.50
2022-10-13T21:48:39.072Z,6.87
2022-10-13T21:51:12.776Z,6.60
2022-10-13T21:53:39.899Z,7.30
2022-10-13T21:56:07.488Z,6.87
2022-10-13T21:58:34.660Z,7.30
2022-10-13T22:01:03.366Z,7.40
2022-10-13T22:03:30.491Z,7.23
2022-10-13T22:05:57.587Z,7.60
2022-10-13T22:08:37.706Z,7.57
2022-10-13T22:11:13.720Z,7.40
2022-10-13T22:13:40.884Z,7.30
2022-10-13T22:16:10.600Z,7.60
2022-10-13T22:18:41.104Z,8.27
2022-10-13T22:21:09.298Z,6.97
2022-10-13T22:23:36.723Z,9.97
2022-10-13T22:26:03.817Z,8.03
2022-10-13T22:28:36.092Z,8.20
2022-10-13T22:31:04.978Z,7.80
2022-10-13T22:33:33.904Z,8.70
2022-10-13T22:36:01.051Z,8.60
2022-10-13T22:38:28.128Z,7.53
2022-10-13T22:40:55.229Z,8.60
2022-10-13T22:43:22.315Z,9.10
2022-10-13T22:45:50.217Z,7.80
2022-10-13T22:48:17.288Z,8.43
2022-10-13T22:50:45.882Z,9.07
2022-10-13T22:53:12.972Z,8.80
2022-10-13T22:55:40.171Z,8.43
2022-10-13T22:58:07.648Z,9.00
2022-10-13T23:00:35.199Z,8.43
2022-10-13T23:03:02.343Z,9.57
2022-10-13T23:05:29.516Z,8.97
2022-10-13T23:07:57.982Z,9.73
2022-10-13T23:10:25.624Z,9.93
2022-10-13T23:12:52.708Z,9.60
2022-10-13T23:15:19.790Z,10.97
2022-10-13T23:17:46.903Z,11.17
2022-10-13T23:20:13.978Z,13.27
2022-10-13T23:22:41.068Z,13.20
2022-10-13T23:25:09.910Z,12.37
2022-10-13T23:27:38.113Z,13.53
2022-10-13T23:30:05.719Z,12.73
2022-10-13T23:32:32.888Z,12.50
2022-10-13T23:34:59.982Z,12.87
2022-10-13T23:37:32.459Z,12.77
2022-10-13T23:39:59.528Z,12.33
2022-10-13T23:42:29.036Z,13.73
2022-10-13T23:44:56.108Z,13.37
2022-10-13T23:47:23.714Z,13.13
2022-10-13T23:49:50.996Z,13.80
2022-10-13T23:52:19.227Z,13.60
2022-10-13T23:54:46.322Z,14.27
2022-10-13T23:57:13.739Z,15.07
2022-10-13T23:59:42.187Z,15.57
